sensor_id;sensor_type;location;lat;lon;timestamp;temperature;humidity
316;DHT22;14128;48.686;9.738;2023-07-20T00:02:24;19.70;1.40
316;DHT22;14128;48.686;9.738;2023-07-20T00:04:51;19.70;1.40
316;DHT22;14128;48.686;9.738;2023-07-20T00:07:18;19.70;1.40
316;DHT22;14128;48.686;9.738;2023-07-20T00:09:45;19.70;1.40
316;DHT22;14128;48.686;9.738;2023-07-20T00:12:11;19.70;1.40
316;DHT22;14128;48.686;9.738;2023-07-20T00:14:38;19.60;1.40
316;DHT22;14128;48.686;9.738;2023-07-20T00:17:06;19.50;1.40
316;DHT22;14128;48.686;9.738;2023-07-20T00:19:33;19.50;1.40
316;DHT22;14128;48.686;9.738;2023-07-20T00:22:00;19.50;1.40
316;DHT22;14128;48.686;9.738;2023-07-20T00:24:27;19.40;1.40
316;DHT22;14128;48.686;9.738;2023-07-20T00:26:54;19.40;1.40
316;DHT22;14128;48.686;9.738;2023-07-20T00:29:21;19.40;1.40
316;DHT22;14128;48.686;9.738;2023-07-20T00:31:47;19.40;1.40
316;DHT22;14128;48.686;9.738;2023-07-20T00:34:15;19.50;1.40
316;DHT22;14128;48.686;9.738;2023-07-20T00:36:42;19.40;1.40
316;DHT22;14128;48.686;9.738;2023-07-20T00:39:09;19.40;1.40
316;DHT22;14128;48.686;9.738;2023-07-20T00:41:36;19.30;1.40
316;DHT22;14128;48.686;9.738;2023-07-20T00:44:04;19.30;1.40
316;DHT22;14128;48.686;9.738;2023-07-20T00:46:31;19.20;1.40
316;DHT22;14128;48.686;9.738;2023-07-20T00:48:59;19.10;1.40
316;DHT22;14128;48.686;9.738;2023-07-20T00:51:28;19.10;1.40
316;DHT22;14128;48.686;9.738;2023-07-20T00:53:55;19.10;1.40
316;DHT22;14128;48.686;9.738;2023-07-20T00:56:22;19.00;1.40
316;DHT22;14128;48.686;9.738;2023-07-20T00:58:49;19.10;1.40
316;DHT22;14128;48.686;9.738;2023-07-20T01:01:16;19.00;1.40
316;DHT22;14128;48.686;9.738;2023-07-20T01:03:42;19.00;1.40
316;DHT22;14128;48.686;9.738;2023-07-20T01:06:16;18.90;1.40
316;DHT22;14128;48.686;9.738;2023-07-20T01:09:01;18.90;1.40
316;DHT22;14128;48.686;9.738;2023-07-20T01:11:36;18.90;1.40
316;DHT22;14128;48.686;9.738;2023-07-20T01:14:05;18.90;1.40
316;DHT22;14128;48.686;9.738;2023-07-20T01:16:33;18.90;1.40
316;DHT22;14128;48.686;9.738;2023-07-20T01:19:00;18.90;1.40
316;DHT22;14128;48.686;9.738;2023-07-20T01:21:33;18.90;1.40
316;DHT22;14128;48.686;9.738;2023-07-20T01:24:27;18.90;1.40
316;DHT22;14128;48.686;9.738;2023-07-20T01:30:16;18.90;1.40
316;DHT22;14128;48.686;9.738;2023-07-20T01:32:46;18.90;1.40
316;DHT22;14128;48.686;9.738;2023-07-20T01:35:14;18.80;1.40
316;DHT22;14128;48.686;9.738;2023-07-20T01:37:44;18.90;1.40
316;DHT22;14128;48.686;9.738;2023-07-20T01:40:13;18.80;1.40
316;DHT22;14128;48.686;9.738;2023-07-20T01:42:44;18.80;1.40
316;DHT22;14128;48.686;9.738;2023-07-20T01:45:11;18.80;1.40
316;DHT22;14128;48.686;9.738;2023-07-20T01:47:38;18.80;1.40
316;DHT22;14128;48.686;9.738;2023-07-20T01:50:07;18.70;1.40
316;DHT22;14128;48.686;9.738;2023-07-20T01:52:34;18.70;1.40
316;DHT22;14128;48.686;9.738;2023-07-20T01:55:01;18.60;1.40
316;DHT22;14128;48.686;9.738;2023-07-20T01:57:28;18.50;1.40
316;DHT22;14128;48.686;9.738;2023-07-20T01:59:55;18.40;1.40
316;DHT22;14128;48.686;9.738;2023-07-20T02:02:26;18.40;1.40
316;DHT22;14128;48.686;9.738;2023-07-20T02:04:53;18.20;1.40
316;DHT22;14128;48.686;9.738;2023-07-20T02:07:21;18.10;1.40
316;DHT22;14128;48.686;9.738;2023-07-20T02:09:48;17.90;1.40
316;DHT22;14128;48.686;9.738;2023-07-20T02:12:15;17.90;1.40
316;DHT22;14128;48.686;9.738;2023-07-20T02:14:42;17.80;1.40
316;DHT22;14128;48.686;9.738;2023-07-20T02:17:09;17.80;1.40
316;DHT22;14128;48.686;9.738;2023-07-20T02:19:37;17.70;1.40
316;DHT22;14128;48.686;9.738;2023-07-20T02:22:04;17.70;1.40
316;DHT22;14128;48.686;9.738;2023-07-20T02:24:32;17.70;1.40
316;DHT22;14128;48.686;9.738;2023-07-20T02:26:59;17.60;1.40
316;DHT22;14128;48.686;9.738;2023-07-20T02:29:26;17.50;1.40
316;DHT22;14128;48.686;9.738;2023-07-20T02:31:53;17.40;1.40
316;DHT22;14128;48.686;9.738;2023-07-20T02:34:19;17.30;1.40
316;DHT22;14128;48.686;9.738;2023-07-20T02:36:46;17.30;1.40
316;DHT22;14128;48.686;9.738;2023-07-20T02:39:13;17.20;1.40
316;DHT22;14128;48.686;9.738;2023-07-20T02:41:42;17.20;1.40
316;DHT22;14128;48.686;9.738;2023-07-20T02:44:08;17.10;1.40
316;DHT22;14128;48.686;9.738;2023-07-20T02:46:35;17.10;1.40
316;DHT22;14128;48.686;9.738;2023-07-20T02:49:02;17.00;1.40
316;DHT22;14128;48.686;9.738;2023-07-20T02:51:29;17.00;1.40
316;DHT22;14128;48.686;9.738;2023-07-20T02:53:56;17.10;1.40
316;DHT22;14128;48.686;9.738;2023-07-20T02:56:23;17.00;1.40
316;DHT22;14128;48.686;9.738;2023-07-20T02:58:51;16.90;1.40
316;DHT22;14128;48.686;9.738;2023-07-20T03:01:18;16.90;1.40
316;DHT22;14128;48.686;9.738;2023-07-20T03:03:45;16.80;1.40
316;DHT22;14128;48.686;9.738;2023-07-20T03:06:13;16.60;1.40
316;DHT22;14128;48.686;9.738;2023-07-20T03:08:40;16.50;1.40
316;DHT22;14128;48.686;9.738;2023-07-20T03:11:12;16.40;1.40
316;DHT22;14128;48.686;9.738;2023-07-20T03:13:39;16.40;1.40
316;DHT22;14128;48.686;9.738;2023-07-20T03:16:07;16.30;1.40
316;DHT22;14128;48.686;9.738;2023-07-20T03:18:36;16.20;1.40
316;DHT22;14128;48.686;9.738;2023-07-20T03:21:03;16.10;1.40
316;DHT22;14128;48.686;9.738;2023-07-20T03:23:30;16.00;1.40
316;DHT22;14128;48.686;9.738;2023-07-20T03:25:57;16.00;1.40
316;DHT22;14128;48.686;9.738;2023-07-20T03:28:24;16.00;1.40
316;DHT22;14128;48.686;9.738;2023-07-20T03:30:53;15.80;1.40
316;DHT22;14128;48.686;9.738;2023-07-20T03:33:21;15.70;1.40
316;DHT22;14128;48.686;9.738;2023-07-20T03:35:48;15.70;1.40
316;DHT22;14128;48.686;9.738;2023-07-20T03:38:15;15.50;1.40
316;DHT22;14128;48.686;9.738;2023-07-20T03:40:49;15.40;1.40
316;DHT22;14128;48.686;9.738;2023-07-20T03:43:16;15.30;1.40
316;DHT22;14128;48.686;9.738;2023-07-20T03:45:43;15.10;1.40
316;DHT22;14128;48.686;9.738;2023-07-20T03:48:11;15.00;1.40
316;DHT22;14128;48.686;9.738;2023-07-20T03:50:39;15.00;1.40
316;DHT22;14128;48.686;9.738;2023-07-20T03:53:06;14.80;1.40
316;DHT22;14128;48.686;9.738;2023-07-20T03:55:33;14.70;1.40
316;DHT22;14128;48.686;9.738;2023-07-20T03:57:59;14.60;1.40
316;DHT22;14128;48.686;9.738;2023-07-20T04:00:27;14.50;1.40
316;DHT22;14128;48.686;9.738;2023-07-20T04:02:54;14.40;1.40
316;DHT22;14128;48.686;9.738;2023-07-20T04:05:21;14.40;1.40
316;DHT22;14128;48.686;9.738;2023-07-20T04:07:49;14.30;1.40
316;DHT22;14128;48.686;9.738;2023-07-20T04:10:17;14.30;1.40
316;DHT22;14128;48.686;9.738;2023-07-20T04:12:44;14.20;1.40
316;DHT22;14128;48.686;9.738;2023-07-20T04:15:12;14.20;1.40
316;DHT22;14128;48.686;9.738;2023-07-20T04:17:39;14.20;1.40
316;DHT22;14128;48.686;9.738;2023-07-20T04:20:07;14.20;1.40
316;DHT22;14128;48.686;9.738;2023-07-20T04:22:35;14.30;1.40
316;DHT22;14128;48.686;9.738;2023-07-20T04:25:03;14.40;1.40
316;DHT22;14128;48.686;9.738;2023-07-20T04:27:30;14.60;1.40
316;DHT22;14128;48.686;9.738;2023-07-20T04:29:58;14.70;1.40
316;DHT22;14128;48.686;9.738;2023-07-20T04:32:25;14.70;1.40
316;DHT22;14128;48.686;9.738;2023-07-20T04:34:52;14.90;1.40
316;DHT22;14128;48.686;9.738;2023-07-20T04:37:19;14.90;1.40
316;DHT22;14128;48.686;9.738;2023-07-20T04:39:46;15.00;1.40
316;DHT22;14128;48.686;9.738;2023-07-20T04:42:14;15.00;1.40
316;DHT22;14128;48.686;9.738;2023-07-20T04:44:41;15.00;1.40
316;DHT22;14128;48.686;9.738;2023-07-20T04:47:09;15.10;1.40
316;DHT22;14128;48.686;9.738;2023-07-20T04:49:36;15.00;1.40
316;DHT22;14128;48.686;9.738;2023-07-20T04:52:03;15.00;1.40
316;DHT22;14128;48.686;9.738;2023-07-20T04:54:30;15.10;1.40
316;DHT22;14128;48.686;9.738;2023-07-20T04:56:56;15.20;1.40
316;DHT22;14128;48.686;9.738;2023-07-20T04:59:25;15.30;1.40
316;DHT22;14128;48.686;9.738;2023-07-20T05:01:51;15.50;1.40
316;DHT22;14128;48.686;9.738;2023-07-20T05:04:19;15.60;1.40
316;DHT22;14128;48.686;9.738;2023-07-20T05:06:45;15.70;1.40
316;DHT22;14128;48.686;9.738;2023-07-20T05:09:12;15.80;1.40
316;DHT22;14128;48.686;9.738;2023-07-20T05:11:39;15.80;1.40
316;DHT22;14128;48.686;9.738;2023-07-20T05:14:06;16.00;1.40
316;DHT22;14128;48.686;9.738;2023-07-20T05:16:34;16.10;1.40
316;DHT22;14128;48.686;9.738;2023-07-20T05:19:01;16.20;1.40
316;DHT22;14128;48.686;9.738;2023-07-20T05:21:27;16.40;1.40
316;DHT22;14128;48.686;9.738;2023-07-20T05:23:54;16.40;1.40
316;DHT22;14128;48.686;9.738;2023-07-20T05:26:21;16.60;1.40
316;DHT22;14128;48.686;9.738;2023-07-20T05:28:48;16.70;1.40
316;DHT22;14128;48.686;9.738;2023-07-20T05:31:15;16.90;1.40
316;DHT22;14128;48.686;9.738;2023-07-20T05:33:43;17.20;1.40
316;DHT22;14128;48.686;9.738;2023-07-20T05:36:09;17.50;1.40
316;DHT22;14128;48.686;9.738;2023-07-20T05:38:36;17.80;1.40
316;DHT22;14128;48.686;9.738;2023-07-20T05:41:03;18.10;1.40
316;DHT22;14128;48.686;9.738;2023-07-20T05:43:30;18.20;1.40
316;DHT22;14128;48.686;9.738;2023-07-20T05:45:57;18.40;1.40
316;DHT22;14128;48.686;9.738;2023-07-20T05:48:24;18.40;1.40
316;DHT22;14128;48.686;9.738;2023-07-20T05:50:52;18.40;1.40
316;DHT22;14128;48.686;9.738;2023-07-20T05:53:19;18.70;1.40
316;DHT22;14128;48.686;9.738;2023-07-20T05:55:52;18.90;1.40
316;DHT22;14128;48.686;9.738;2023-07-20T05:58:19;19.20;1.40
316;DHT22;14128;48.686;9.738;2023-07-20T06:00:47;19.40;1.40
316;DHT22;14128;48.686;9.738;2023-07-20T06:03:14;19.70;1.40
316;DHT22;14128;48.686;9.738;2023-07-20T06:05:42;19.90;1.40
316;DHT22;14128;48.686;9.738;2023-07-20T06:08:10;20.00;1.40
316;DHT22;14128;48.686;9.738;2023-07-20T06:10:37;20.10;1.40
316;DHT22;14128;48.686;9.738;2023-07-20T06:13:04;20.30;1.40
316;DHT22;14128;48.686;9.738;2023-07-20T06:15:32;20.40;1.40
316;DHT22;14128;48.686;9.738;2023-07-20T06:18:00;20.20;1.40
316;DHT22;14128;48.686;9.738;2023-07-20T06:20:29;20.30;1.40
316;DHT22;14128;48.686;9.738;2023-07-20T06:22:56;20.30;1.40
316;DHT22;14128;48.686;9.738;2023-07-20T06:25:24;20.50;1.40
316;DHT22;14128;48.686;9.738;2023-07-20T06:27:51;20.60;1.40
316;DHT22;14128;48.686;9.738;2023-07-20T06:30:19;20.60;1.40
316;DHT22;14128;48.686;9.738;2023-07-20T06:32:46;20.60;1.40
316;DHT22;14128;48.686;9.738;2023-07-20T06:35:13;20.80;1.40
316;DHT22;14128;48.686;9.738;2023-07-20T06:37:40;20.90;1.40
316;DHT22;14128;48.686;9.738;2023-07-20T06:40:08;21.00;1.40
316;DHT22;14128;48.686;9.738;2023-07-20T06:42:36;21.20;1.40
316;DHT22;14128;48.686;9.738;2023-07-20T06:45:04;21.30;1.40
316;DHT22;14128;48.686;9.738;2023-07-20T06:47:31;21.00;1.40
316;DHT22;14128;48.686;9.738;2023-07-20T06:49:58;21.00;1.40
316;DHT22;14128;48.686;9.738;2023-07-20T06:52:24;20.90;1.40
316;DHT22;14128;48.686;9.738;2023-07-20T06:54:51;20.80;1.40
316;DHT22;14128;48.686;9.738;2023-07-20T06:57:18;21.10;1.40
316;DHT22;14128;48.686;9.738;2023-07-20T06:59:46;21.30;1.40
316;DHT22;14128;48.686;9.738;2023-07-20T07:02:14;21.20;1.40
316;DHT22;14128;48.686;9.738;2023-07-20T07:04:41;21.20;1.40
316;DHT22;14128;48.686;9.738;2023-07-20T07:07:08;21.30;1.40
316;DHT22;14128;48.686;9.738;2023-07-20T07:09:35;21.50;1.40
316;DHT22;14128;48.686;9.738;2023-07-20T07:12:02;21.70;1.40
316;DHT22;14128;48.686;9.738;2023-07-20T07:14:28;21.90;1.40
316;DHT22;14128;48.686;9.738;2023-07-20T07:16:57;21.90;1.40
316;DHT22;14128;48.686;9.738;2023-07-20T07:19:24;21.50;1.40
316;DHT22;14128;48.686;9.738;2023-07-20T07:21:50;21.40;1.40
316;DHT22;14128;48.686;9.738;2023-07-20T07:24:17;21.20;1.40
316;DHT22;14128;48.686;9.738;2023-07-20T07:26:44;20.90;1.40
316;DHT22;14128;48.686;9.738;2023-07-20T07:29:11;20.60;1.40
316;DHT22;14128;48.686;9.738;2023-07-20T07:31:38;20.40;1.40
316;DHT22;14128;48.686;9.738;2023-07-20T07:34:06;20.40;1.40
316;DHT22;14128;48.686;9.738;2023-07-20T07:36:33;20.20;1.40
316;DHT22;14128;48.686;9.738;2023-07-20T07:39:00;20.10;1.40
316;DHT22;14128;48.686;9.738;2023-07-20T07:41:26;20.10;1.40
316;DHT22;14128;48.686;9.738;2023-07-20T07:43:53;20.00;1.40
316;DHT22;14128;48.686;9.738;2023-07-20T07:46:20;20.00;1.40
316;DHT22;14128;48.686;9.738;2023-07-20T07:48:47;19.90;1.40
316;DHT22;14128;48.686;9.738;2023-07-20T07:51:16;20.10;1.40
316;DHT22;14128;48.686;9.738;2023-07-20T07:53:43;20.00;1.40
316;DHT22;14128;48.686;9.738;2023-07-20T07:56:10;20.10;1.40
316;DHT22;14128;48.686;9.738;2023-07-20T07:58:36;20.00;1.40
316;DHT22;14128;48.686;9.738;2023-07-20T08:01:03;20.10;1.40
316;DHT22;14128;48.686;9.738;2023-07-20T08:03:30;20.20;1.40
316;DHT22;14128;48.686;9.738;2023-07-20T08:05:57;20.20;1.40
316;DHT22;14128;48.686;9.738;2023-07-20T08:08:26;20.30;1.40
316;DHT22;14128;48.686;9.738;2023-07-20T08:10:54;20.40;1.40
316;DHT22;14128;48.686;9.738;2023-07-20T08:13:21;20.50;1.40
316;DHT22;14128;48.686;9.738;2023-07-20T08:15:50;20.40;1.40
316;DHT22;14128;48.686;9.738;2023-07-20T08:18:17;20.40;1.40
316;DHT22;14128;48.686;9.738;2023-07-20T08:20:45;20.50;1.40
316;DHT22;14128;48.686;9.738;2023-07-20T08:23:12;20.40;1.40
316;DHT22;14128;48.686;9.738;2023-07-20T08:25:40;20.50;1.40
316;DHT22;14128;48.686;9.738;2023-07-20T08:28:10;20.60;1.40
316;DHT22;14128;48.686;9.738;2023-07-20T08:30:41;20.70;1.40
316;DHT22;14128;48.686;9.738;2023-07-20T08:33:08;20.80;1.40
316;DHT22;14128;48.686;9.738;2023-07-20T08:35:35;20.90;1.40
316;DHT22;14128;48.686;9.738;2023-07-20T08:38:02;21.00;1.40
316;DHT22;14128;48.686;9.738;2023-07-20T08:40:30;21.10;1.40
316;DHT22;14128;48.686;9.738;2023-07-20T08:42:59;21.20;1.40
316;DHT22;14128;48.686;9.738;2023-07-20T08:45:27;21.20;1.40
316;DHT22;14128;48.686;9.738;2023-07-20T08:47:55;21.20;1.40
316;DHT22;14128;48.686;9.738;2023-07-20T08:50:23;21.30;1.40
316;DHT22;14128;48.686;9.738;2023-07-20T08:52:52;21.30;1.40
316;DHT22;14128;48.686;9.738;2023-07-20T08:55:20;21.40;1.40
316;DHT22;14128;48.686;9.738;2023-07-20T08:57:50;21.60;1.40
316;DHT22;14128;48.686;9.738;2023-07-20T09:00:19;21.70;1.40
316;DHT22;14128;48.686;9.738;2023-07-20T09:02:49;21.70;1.40
316;DHT22;14128;48.686;9.738;2023-07-20T09:05:17;21.70;1.40
316;DHT22;14128;48.686;9.738;2023-07-20T09:07:44;21.70;1.40
316;DHT22;14128;48.686;9.738;2023-07-20T09:10:11;22.00;1.40
316;DHT22;14128;48.686;9.738;2023-07-20T09:12:39;22.10;1.40
316;DHT22;14128;48.686;9.738;2023-07-20T09:15:07;22.20;1.40
316;DHT22;14128;48.686;9.738;2023-07-20T09:17:36;22.40;1.40
316;DHT22;14128;48.686;9.738;2023-07-20T09:20:04;22.50;1.40
316;DHT22;14128;48.686;9.738;2023-07-20T09:22:34;22.20;1.40
316;DHT22;14128;48.686;9.738;2023-07-20T09:25:01;22.10;1.40
316;DHT22;14128;48.686;9.738;2023-07-20T09:27:35;21.90;1.40
316;DHT22;14128;48.686;9.738;2023-07-20T09:30:04;21.90;1.40
316;DHT22;14128;48.686;9.738;2023-07-20T09:32:39;22.00;1.40
316;DHT22;14128;48.686;9.738;2023-07-20T09:35:12;22.10;1.40
316;DHT22;14128;48.686;9.738;2023-07-20T09:37:41;22.30;1.40
316;DHT22;14128;48.686;9.738;2023-07-20T09:40:09;22.20;1.40
316;DHT22;14128;48.686;9.738;2023-07-20T09:42:37;22.30;1.40
316;DHT22;14128;48.686;9.738;2023-07-20T09:45:07;22.70;1.40
316;DHT22;14128;48.686;9.738;2023-07-20T09:47:36;22.90;1.40
316;DHT22;14128;48.686;9.738;2023-07-20T09:50:06;22.90;1.40
316;DHT22;14128;48.686;9.738;2023-07-20T09:52:38;22.90;1.40
316;DHT22;14128;48.686;9.738;2023-07-20T09:55:06;22.80;1.40
316;DHT22;14128;48.686;9.738;2023-07-20T09:57:34;22.90;1.40
316;DHT22;14128;48.686;9.738;2023-07-20T10:00:01;23.30;1.40
316;DHT22;14128;48.686;9.738;2023-07-20T10:02:32;23.80;1.40
316;DHT22;14128;48.686;9.738;2023-07-20T10:05:02;24.40;1.40
316;DHT22;14128;48.686;9.738;2023-07-20T10:07:31;24.90;1.40
316;DHT22;14128;48.686;9.738;2023-07-20T10:10:01;24.70;1.40
316;DHT22;14128;48.686;9.738;2023-07-20T10:12:31;24.40;1.40
316;DHT22;14128;48.686;9.738;2023-07-20T10:15:03;24.70;1.40
316;DHT22;14128;48.686;9.738;2023-07-20T10:17:32;25.10;1.40
316;DHT22;14128;48.686;9.738;2023-07-20T10:20:00;24.70;1.40
316;DHT22;14128;48.686;9.738;2023-07-20T10:22:34;24.30;1.40
316;DHT22;14128;48.686;9.738;2023-07-20T10:25:02;23.70;1.40
316;DHT22;14128;48.686;9.738;2023-07-20T10:27:31;23.60;1.40
316;DHT22;14128;48.686;9.738;2023-07-20T10:29:58;23.80;1.40
316;DHT22;14128;48.686;9.738;2023-07-20T10:32:27;23.80;1.40
316;DHT22;14128;48.686;9.738;2023-07-20T10:34:56;23.80;1.40
316;DHT22;14128;48.686;9.738;2023-07-20T10:37:49;23.60;1.40
316;DHT22;14128;48.686;9.738;2023-07-20T10:40:33;23.70;1.40
316;DHT22;14128;48.686;9.738;2023-07-20T10:43:02;24.10;1.40
316;DHT22;14128;48.686;9.738;2023-07-20T10:45:48;24.60;1.40
316;DHT22;14128;48.686;9.738;2023-07-20T10:48:17;25.10;1.40
316;DHT22;14128;48.686;9.738;2023-07-20T10:50:46;25.60;1.40
316;DHT22;14128;48.686;9.738;2023-07-20T10:53:16;25.70;1.40
316;DHT22;14128;48.686;9.738;2023-07-20T10:55:43;26.10;1.40
316;DHT22;14128;48.686;9.738;2023-07-20T10:58:13;26.30;1.40
316;DHT22;14128;48.686;9.738;2023-07-20T11:01:01;26.40;1.40
316;DHT22;14128;48.686;9.738;2023-07-20T11:03:29;25.90;1.40
316;DHT22;14128;48.686;9.738;2023-07-20T11:05:57;26.20;1.40
316;DHT22;14128;48.686;9.738;2023-07-20T11:08:41;26.70;1.40
316;DHT22;14128;48.686;9.738;2023-07-20T11:11:25;26.20;1.40
316;DHT22;14128;48.686;9.738;2023-07-20T11:13:59;26.20;1.40
316;DHT22;14128;48.686;9.738;2023-07-20T11:16:38;26.10;1.40
316;DHT22;14128;48.686;9.738;2023-07-20T11:19:15;26.10;1.40
316;DHT22;14128;48.686;9.738;2023-07-20T11:21:43;26.20;1.40
316;DHT22;14128;48.686;9.738;2023-07-20T11:24:13;25.70;1.40
316;DHT22;14128;48.686;9.738;2023-07-20T11:26:41;24.90;1.40
316;DHT22;14128;48.686;9.738;2023-07-20T11:29:07;24.60;1.40
316;DHT22;14128;48.686;9.738;2023-07-20T11:31:37;24.80;1.40
316;DHT22;14128;48.686;9.738;2023-07-20T11:34:05;25.00;1.40
316;DHT22;14128;48.686;9.738;2023-07-20T11:36:33;25.00;1.40
316;DHT22;14128;48.686;9.738;2023-07-20T11:39:00;25.40;1.40
316;DHT22;14128;48.686;9.738;2023-07-20T11:41:28;25.90;1.40
316;DHT22;14128;48.686;9.738;2023-07-20T11:43:55;26.20;1.40
316;DHT22;14128;48.686;9.738;2023-07-20T11:46:22;26.40;1.40
316;DHT22;14128;48.686;9.738;2023-07-20T11:48:48;26.40;1.40
316;DHT22;14128;48.686;9.738;2023-07-20T11:51:16;26.90;1.40
316;DHT22;14128;48.686;9.738;2023-07-20T11:53:44;27.00;1.40
316;DHT22;14128;48.686;9.738;2023-07-20T11:56:12;27.50;1.40
316;DHT22;14128;48.686;9.738;2023-07-20T11:58:43;28.20;1.40
316;DHT22;14128;48.686;9.738;2023-07-20T12:01:12;28.70;1.40
316;DHT22;14128;48.686;9.738;2023-07-20T12:03:39;29.10;1.40
316;DHT22;14128;48.686;9.738;2023-07-20T12:06:06;28.80;1.40
316;DHT22;14128;48.686;9.738;2023-07-20T12:08:34;28.40;1.40
316;DHT22;14128;48.686;9.738;2023-07-20T12:11:01;27.10;1.40
316;DHT22;14128;48.686;9.738;2023-07-20T12:13:36;26.20;1.40
316;DHT22;14128;48.686;9.738;2023-07-20T12:16:11;25.70;1.40
316;DHT22;14128;48.686;9.738;2023-07-20T12:18:40;25.00;1.40
316;DHT22;14128;48.686;9.738;2023-07-20T12:21:07;25.10;1.40
316;DHT22;14128;48.686;9.738;2023-07-20T12:23:38;25.70;1.40
316;DHT22;14128;48.686;9.738;2023-07-20T12:26:08;26.20;1.40
316;DHT22;14128;48.686;9.738;2023-07-20T12:28:39;26.20;1.40
316;DHT22;14128;48.686;9.738;2023-07-20T12:31:07;25.90;1.40
316;DHT22;14128;48.686;9.738;2023-07-20T12:33:36;25.90;1.40
316;DHT22;14128;48.686;9.738;2023-07-20T12:36:04;26.10;1.40
316;DHT22;14128;48.686;9.738;2023-07-20T12:38:31;26.90;1.40
316;DHT22;14128;48.686;9.738;2023-07-20T12:40:58;27.70;1.40
316;DHT22;14128;48.686;9.738;2023-07-20T12:43:25;28.00;1.40
316;DHT22;14128;48.686;9.738;2023-07-20T12:45:52;27.30;1.40
316;DHT22;14128;48.686;9.738;2023-07-20T12:48:20;26.50;1.40
316;DHT22;14128;48.686;9.738;2023-07-20T12:50:48;26.10;1.40
316;DHT22;14128;48.686;9.738;2023-07-20T12:53:16;25.60;1.40
316;DHT22;14128;48.686;9.738;2023-07-20T12:55:42;25.20;1.40
316;DHT22;14128;48.686;9.738;2023-07-20T12:58:11;25.40;1.40
316;DHT22;14128;48.686;9.738;2023-07-20T13:00:38;25.90;1.40
316;DHT22;14128;48.686;9.738;2023-07-20T13:03:05;25.90;1.40
316;DHT22;14128;48.686;9.738;2023-07-20T13:05:32;25.70;1.40
316;DHT22;14128;48.686;9.738;2023-07-20T13:08:00;26.60;1.40
316;DHT22;14128;48.686;9.738;2023-07-20T13:10:27;28.10;1.40
316;DHT22;14128;48.686;9.738;2023-07-20T13:12:54;29.40;1.40
316;DHT22;14128;48.686;9.738;2023-07-20T13:15:24;30.20;1.40
316;DHT22;14128;48.686;9.738;2023-07-20T13:17:56;30.80;1.40
316;DHT22;14128;48.686;9.738;2023-07-20T13:20:23;30.90;1.40
316;DHT22;14128;48.686;9.738;2023-07-20T13:22:49;31.30;1.40
316;DHT22;14128;48.686;9.738;2023-07-20T13:25:18;31.90;1.40
316;DHT22;14128;48.686;9.738;2023-07-20T13:27:45;30.30;1.40
316;DHT22;14128;48.686;9.738;2023-07-20T13:30:12;31.00;1.40
316;DHT22;14128;48.686;9.738;2023-07-20T13:32:42;32.00;1.40
316;DHT22;14128;48.686;9.738;2023-07-20T13:35:09;32.80;1.40
316;DHT22;14128;48.686;9.738;2023-07-20T13:37:36;33.30;1.40
316;DHT22;14128;48.686;9.738;2023-07-20T13:40:03;34.00;1.40
316;DHT22;14128;48.686;9.738;2023-07-20T13:42:32;34.90;1.40
316;DHT22;14128;48.686;9.738;2023-07-20T13:45:00;36.10;1.40
316;DHT22;14128;48.686;9.738;2023-07-20T13:47:26;35.20;1.40
316;DHT22;14128;48.686;9.738;2023-07-20T13:49:53;34.00;1.40
316;DHT22;14128;48.686;9.738;2023-07-20T13:52:21;32.10;1.40
316;DHT22;14128;48.686;9.738;2023-07-20T13:54:48;31.00;1.40
316;DHT22;14128;48.686;9.738;2023-07-20T13:57:15;34.20;1.40
316;DHT22;14128;48.686;9.738;2023-07-20T13:59:43;35.40;1.40
316;DHT22;14128;48.686;9.738;2023-07-20T14:02:10;35.00;1.40
316;DHT22;14128;48.686;9.738;2023-07-20T14:04:38;35.80;1.40
316;DHT22;14128;48.686;9.738;2023-07-20T14:07:05;36.90;1.40
316;DHT22;14128;48.686;9.738;2023-07-20T14:09:32;34.60;1.40
316;DHT22;14128;48.686;9.738;2023-07-20T14:11:59;34.30;1.40
316;DHT22;14128;48.686;9.738;2023-07-20T14:14:26;34.70;1.40
316;DHT22;14128;48.686;9.738;2023-07-20T14:16:54;35.10;1.40
316;DHT22;14128;48.686;9.738;2023-07-20T14:19:21;37.60;1.40
316;DHT22;14128;48.686;9.738;2023-07-20T14:21:48;38.80;1.40
316;DHT22;14128;48.686;9.738;2023-07-20T14:24:15;39.40;1.40
316;DHT22;14128;48.686;9.738;2023-07-20T14:26:42;38.80;1.40
316;DHT22;14128;48.686;9.738;2023-07-20T14:29:09;38.40;1.40
316;DHT22;14128;48.686;9.738;2023-07-20T14:31:36;38.20;1.40
316;DHT22;14128;48.686;9.738;2023-07-20T14:34:04;38.30;1.40
316;DHT22;14128;48.686;9.738;2023-07-20T14:36:31;38.00;1.40
316;DHT22;14128;48.686;9.738;2023-07-20T14:38:57;38.30;1.40
316;DHT22;14128;48.686;9.738;2023-07-20T14:41:24;38.30;1.40
316;DHT22;14128;48.686;9.738;2023-07-20T14:43:51;40.70;1.40
316;DHT22;14128;48.686;9.738;2023-07-20T14:46:18;41.70;1.40
316;DHT22;14128;48.686;9.738;2023-07-20T14:48:45;37.00;1.40
316;DHT22;14128;48.686;9.738;2023-07-20T14:51:13;36.50;1.40
316;DHT22;14128;48.686;9.738;2023-07-20T14:53:40;39.10;1.40
316;DHT22;14128;48.686;9.738;2023-07-20T14:56:07;40.90;1.40
316;DHT22;14128;48.686;9.738;2023-07-20T14:58:34;41.90;1.40
316;DHT22;14128;48.686;9.738;2023-07-20T15:01:01;40.10;1.40
316;DHT22;14128;48.686;9.738;2023-07-20T15:03:28;40.40;1.40
316;DHT22;14128;48.686;9.738;2023-07-20T15:05:56;41.80;1.40
316;DHT22;14128;48.686;9.738;2023-07-20T15:08:24;41.70;1.40
316;DHT22;14128;48.686;9.738;2023-07-20T15:10:51;40.10;1.40
316;DHT22;14128;48.686;9.738;2023-07-20T15:13:18;42.00;1.40
316;DHT22;14128;48.686;9.738;2023-07-20T15:15:44;40.90;1.40
316;DHT22;14128;48.686;9.738;2023-07-20T15:18:11;41.90;1.40
316;DHT22;14128;48.686;9.738;2023-07-20T15:20:38;43.50;1.40
316;DHT22;14128;48.686;9.738;2023-07-20T15:23:05;44.80;1.40
316;DHT22;14128;48.686;9.738;2023-07-20T15:25:33;45.10;1.40
316;DHT22;14128;48.686;9.738;2023-07-20T15:28:00;43.20;1.40
316;DHT22;14128;48.686;9.738;2023-07-20T15:30:27;40.70;1.40
316;DHT22;14128;48.686;9.738;2023-07-20T15:32:54;39.20;1.40
316;DHT22;14128;48.686;9.738;2023-07-20T15:35:22;38.70;1.40
316;DHT22;14128;48.686;9.738;2023-07-20T15:37:49;38.40;1.40
316;DHT22;14128;48.686;9.738;2023-07-20T15:40:16;39.50;1.40
316;DHT22;14128;48.686;9.738;2023-07-20T15:42:44;39.90;1.40
316;DHT22;14128;48.686;9.738;2023-07-20T15:45:11;40.90;1.40
316;DHT22;14128;48.686;9.738;2023-07-20T15:47:38;39.20;1.40
316;DHT22;14128;48.686;9.738;2023-07-20T15:50:05;38.30;1.40
316;DHT22;14128;48.686;9.738;2023-07-20T15:52:32;37.00;1.40
316;DHT22;14128;48.686;9.738;2023-07-20T15:54:59;38.10;1.40
316;DHT22;14128;48.686;9.738;2023-07-20T15:57:26;38.10;1.40
316;DHT22;14128;48.686;9.738;2023-07-20T15:59:54;39.50;1.40
316;DHT22;14128;48.686;9.738;2023-07-20T16:02:21;39.50;1.40
316;DHT22;14128;48.686;9.738;2023-07-20T16:04:47;40.60;1.40
316;DHT22;14128;48.686;9.738;2023-07-20T16:07:14;38.80;1.40
316;DHT22;14128;48.686;9.738;2023-07-20T16:09:41;39.10;1.40
316;DHT22;14128;48.686;9.738;2023-07-20T16:12:09;39.60;1.40
316;DHT22;14128;48.686;9.738;2023-07-20T16:14:36;41.50;1.40
316;DHT22;14128;48.686;9.738;2023-07-20T16:17:05;42.60;1.40
316;DHT22;14128;48.686;9.738;2023-07-20T16:19:32;41.30;1.40
316;DHT22;14128;48.686;9.738;2023-07-20T16:21:58;42.00;1.40
316;DHT22;14128;48.686;9.738;2023-07-20T16:24:25;40.90;1.40
316;DHT22;14128;48.686;9.738;2023-07-20T16:26:52;42.10;1.40